createdAt,value
2016-06-15T00:00:14.518Z,98.8
2016-06-15T00:01:14.366Z,98.33
2016-06-15T00:02:14.510Z,98.47
2016-06-15T00:03:14.513Z,98.52
2016-06-15T00:04:14.516Z,98.61
2016-06-15T00:05:14.581Z,98.42
2016-06-15T00:06:15.428Z,98.8
2016-06-15T00:07:14.556Z,98.42
2016-06-15T00:08:15.403Z,98.9
2016-06-15T00:09:14.499Z,98.9
2016-06-15T00:10:14.644Z,98.75
2016-06-15T00:11:14.990Z,98.99
2016-06-15T00:12:14.494Z,98.99
2016-06-15T00:13:14.496Z,99.24
2016-06-15T00:14:14.484Z,98.9
2016-06-15T00:15:14.534Z,98.71
2016-06-15T00:16:14.490Z,98.9
2016-06-15T00:17:14.493Z,98.99
2016-06-15T00:18:14.496Z,98.8
2016-06-15T00:19:15.030Z,98.95
2016-06-15T00:20:14.486Z,98.8
2016-06-15T00:21:14.475Z,98.8
2016-06-15T00:22:14.477Z,98.95
2016-06-15T00:23:14.465Z,98.95
2016-06-15T00:24:15.248Z,98.8
2016-06-15T00:25:15.674Z,98.61
2016-06-15T00:26:15.036Z,98.66
2016-06-15T00:27:14.462Z,98.71
2016-06-15T00:28:14.464Z,98.8
2016-06-15T00:29:14.452Z,98.61
2016-06-15T00:30:14.470Z,98.61
2016-06-15T00:31:14.458Z,98.8
2016-06-15T00:32:15.977Z,98.71
2016-06-15T00:33:15.230Z,98.61
2016-06-15T00:34:14.451Z,98.9
2016-06-15T00:35:14.454Z,98.8
2016-06-15T00:36:14.443Z,98.71
2016-06-15T00:37:14.445Z,98.9
2016-06-15T00:38:14.432Z,98.99
2016-06-15T00:39:14.436Z,98.8
2016-06-15T00:40:14.439Z,99.09
2016-06-15T00:41:14.425Z,99.19
2016-06-15T00:42:14.429Z,98.99
2016-06-15T00:43:14.432Z,99.19
2016-06-15T00:44:14.435Z,99.28
2016-06-15T00:45:14.423Z,99.28
2016-06-15T00:46:14.426Z,99.38
2016-06-15T00:47:14.413Z,99.09
2016-06-15T00:48:14.416Z,99.09
2016-06-15T00:49:14.419Z,99.38
2016-06-15T00:50:14.422Z,99.19
2016-06-15T00:51:14.411Z,99.57
2016-06-15T00:52:14.413Z,99.38
2016-06-15T00:53:14.401Z,99.48
2016-06-15T00:54:14.404Z,99.57
2016-06-15T00:55:14.251Z,99.57
2016-06-15T00:56:14.394Z,99.19
2016-06-15T00:57:14.397Z,99.28
2016-06-15T00:58:14.431Z,99.38
2016-06-15T00:59:14.470Z,99.66
2016-06-15T01:00:14.495Z,99.19
2016-06-15T01:01:14.534Z,99.38
2016-06-15T01:02:14.557Z,99.38
2016-06-15T01:03:14.422Z,99.48
2016-06-15T01:04:14.578Z,99.57
2016-06-15T01:05:14.657Z,99.85
2016-06-15T01:06:14.610Z,99.99
2016-06-15T01:07:14.626Z,99.95
2016-06-15T01:08:14.620Z,99.76
2016-06-15T01:09:14.629Z,99.66
2016-06-15T01:10:14.620Z,99.99
2016-06-15T01:11:14.629Z,99.76
2016-06-15T01:12:14.636Z,99.95
2016-06-15T01:13:14.642Z,99.76
2016-06-15T01:14:14.631Z,99.76
2016-06-15T01:15:14.651Z,99.95
2016-06-15T01:16:14.625Z,99.95
2016-06-15T01:17:14.629Z,99.66
2016-06-15T01:18:14.634Z,99.85
2016-06-15T01:19:14.621Z,99.99
2016-06-15T01:20:15.078Z,99.85
2016-06-15T01:21:14.629Z,99.9
2016-06-15T01:22:14.633Z,99.76
2016-06-15T01:23:14.621Z,99.85
2016-06-15T01:24:14.764Z,99.81
2016-06-15T01:25:14.611Z,99.81
2016-06-15T01:26:15.067Z,99.9
2016-06-15T01:27:15.009Z,99.81
2016-06-15T01:28:14.964Z,99.9
2016-06-15T01:29:14.608Z,99.9
2016-06-15T01:30:14.454Z,99.71
2016-06-15T01:31:14.614Z,99.9
2016-06-15T01:32:14.601Z,99.9
2016-06-15T01:33:15.261Z,99.95
2016-06-15T01:34:14.810Z,99.99
2016-06-15T01:35:15.798Z,99.95
2016-06-15T01:36:14.597Z,99.95
2016-06-15T01:37:14.757Z,99.95
2016-06-15T01:38:14.589Z,99.76
2016-06-15T01:39:14.592Z,99.76
2016-06-15T01:40:14.579Z,99.76
2016-06-15T01:42:14.585Z,99.95
2016-06-15T01:43:15.791Z,99.57
2016-06-15T01:44:14.576Z,99.76
2016-06-15T01:45:14.750Z,99.66
2016-06-15T01:46:14.581Z,99.76
2016-06-15T01:47:14.569Z,99.76
2016-06-15T01:48:14.573Z,99.76
2016-06-15T01:49:14.576Z,99.76
2016-06-15T01:50:15.266Z,99.99
2016-06-15T01:51:15.800Z,99.95
2016-06-15T01:52:15.850Z,99.76
2016-06-15T01:53:15.041Z,99.76
2016-06-15T01:54:14.559Z,99.76
2016-06-15T01:55:14.562Z,99.76
2016-06-15T01:56:14.565Z,99.95
2016-06-15T01:57:14.756Z,99.99
2016-06-15T01:58:14.556Z,99.99
2016-06-15T01:59:14.544Z,99.95
2016-06-15T02:00:14.547Z,99.99
2016-06-15T02:01:14.535Z,99.99
2016-06-15T02:02:14.538Z,99.99
2016-06-15T02:03:14.541Z,99.99
2016-06-15T02:04:14.544Z,99.99
2016-06-15T02:05:14.547Z,99.99
2016-06-15T02:06:14.550Z,99.99
2016-06-15T02:07:14.521Z,99.99
2016-06-15T02:08:14.524Z,99.99
2016-06-15T02:09:14.527Z,99.99
2016-06-15T02:10:14.530Z,99.99
2016-06-15T02:11:14.519Z,99.99
2016-06-15T02:12:14.522Z,99.99
2016-06-15T02:13:14.509Z,99.99
2016-06-15T02:14:14.512Z,99.99
2016-06-15T02:15:14.515Z,99.99
2016-06-15T02:16:14.362Z,99.76
2016-06-15T02:17:14.505Z,99.99
2016-06-15T02:18:14.352Z,99.99
2016-06-15T02:19:14.511Z,99.99
2016-06-15T02:20:14.343Z,99.99
2016-06-15T02:21:14.361Z,99.99
2016-06-15T02:22:14.490Z,99.99
2016-06-15T02:23:14.492Z,99.99
2016-06-15T02:24:14.496Z,99.99
2016-06-15T02:25:14.498Z,99.99
2016-06-15T02:26:14.486Z,99.99
2016-06-15T02:27:14.489Z,99.99
2016-06-15T02:28:14.477Z,99.99
2016-06-15T02:29:14.479Z,99.99
2016-06-15T02:30:14.467Z,99.99
2016-06-15T02:31:14.469Z,99.99
2016-06-15T02:32:14.473Z,99.99
2016-06-15T02:33:14.476Z,99.99
2016-06-15T02:34:14.464Z,99.99
2016-06-15T02:35:14.326Z,99.99
2016-06-15T02:36:14.470Z,99.99
2016-06-15T02:37:14.457Z,99.99
2016-06-15T02:38:14.460Z,99.99
2016-06-15T02:39:14.463Z,99.99
2016-06-15T02:40:14.450Z,99.99
2016-06-15T02:41:14.454Z,99.99
2016-06-15T02:42:14.441Z,99.99
2016-06-15T02:43:15.101Z,99.99
2016-06-15T02:44:15.057Z,99.99
2016-06-15T02:45:14.498Z,99.99
2016-06-15T02:46:14.438Z,99.99
2016-06-15T02:47:14.441Z,99.99
2016-06-15T02:48:14.429Z,99.99
2016-06-15T02:49:14.432Z,99.99
2016-06-15T02:50:14.811Z,99.99
2016-06-15T02:51:14.422Z,99.99
2016-06-15T02:52:15.129Z,99.99
2016-06-15T02:54:14.416Z,99.99
2016-06-15T02:55:14.763Z,99.99
2016-06-15T02:56:14.407Z,99.99
2016-06-15T02:57:14.471Z,99.99
2016-06-15T02:58:14.413Z,99.99
2016-06-15T02:59:14.977Z,99.99
2016-06-15T03:00:14.403Z,99.99
2016-06-15T03:01:14.828Z,99.99
2016-06-15T03:02:15.035Z,99.99
2016-06-15T03:03:14.803Z,99.99
2016-06-15T03:04:14.399Z,99.99
2016-06-15T03:05:14.387Z,99.99
2016-06-15T03:06:14.875Z,99.99
2016-06-15T03:07:14.394Z,99.99
2016-06-15T03:08:15.834Z,99.99
2016-06-15T03:09:15.400Z,99.99
2016-06-15T03:10:14.621Z,99.99
2016-06-15T03:11:15.765Z,99.99
2016-06-15T03:12:14.378Z,99.99
2016-06-15T03:13:15.177Z,99.99
2016-06-15T03:14:14.509Z,99.99
2016-06-15T03:15:14.449Z,99.99
2016-06-15T03:16:14.374Z,99.99
2016-06-15T03:17:14.362Z,99.99
2016-06-15T03:18:14.364Z,99.99
2016-06-15T03:19:14.352Z,99.99
2016-06-15T03:20:14.355Z,99.99
2016-06-15T03:21:14.358Z,99.99
2016-06-15T03:22:14.361Z,99.99
2016-06-15T03:23:14.349Z,99.99
2016-06-15T03:24:14.351Z,99.99
2016-06-15T03:25:14.355Z,99.99
2016-06-15T03:26:14.342Z,99.99
2016-06-15T03:27:14.345Z,99.99
2016-06-15T03:28:14.333Z,99.99
2016-06-15T03:29:14.336Z,99.99
2016-06-15T03:30:14.339Z,99.99
2016-06-15T03:31:14.342Z,99.99
2016-06-15T03:32:14.329Z,99.99
2016-06-15T03:33:14.332Z,99.99
2016-06-15T03:34:14.336Z,99.99
2016-06-15T03:35:14.323Z,99.99
2016-06-15T03:36:14.623Z,99.99
2016-06-15T03:37:14.330Z,99.99
2016-06-15T03:38:14.333Z,99.99
2016-06-15T03:39:14.320Z,99.99
2016-06-15T03:40:14.323Z,99.99
2016-06-15T03:41:14.326Z,99.99
2016-06-15T03:42:14.345Z,99.99
2016-06-15T03:43:14.316Z,99.99
2016-06-15T03:44:14.319Z,99.99
2016-06-15T03:45:14.323Z,99.99
2016-06-15T03:46:14.310Z,99.87
2016-06-15T03:47:14.314Z,99.96
2016-06-15T03:48:14.316Z,99.99
2016-06-15T03:49:14.320Z,99.96
2016-06-15T03:50:14.306Z,99.99
2016-06-15T03:51:14.154Z,99.67
2016-06-15T03:52:14.312Z,99.82
2016-06-15T03:53:14.316Z,99.63
2016-06-15T03:54:14.302Z,99.34
2016-06-15T03:55:14.306Z,99.05
2016-06-15T03:56:14.309Z,99.15
2016-06-15T03:57:14.312Z,99.1
2016-06-15T03:58:14.301Z,98.91
2016-06-15T03:59:14.303Z,99.48
2016-06-15T04:00:14.321Z,98.96
2016-06-15T04:01:14.700Z,98.96
2016-06-15T04:02:14.312Z,98.72
2016-06-15T04:03:14.300Z,98.62
2016-06-15T04:04:14.302Z,98.29
2016-06-15T04:05:14.306Z,98.53
2016-06-15T04:06:14.559Z,97.96
2016-06-15T04:07:14.312Z,97.38
2016-06-15T04:08:14.503Z,96.22
2016-06-15T04:09:14.318Z,95.5
2016-06-15T04:10:15.462Z,94.83
2016-06-15T04:11:28.480Z,93.53
2016-06-15T04:12:14.562Z,93.19
2016-06-15T04:13:28.643Z,92.13
2016-06-15T04:15:14.322Z,90.88
2016-06-15T04:16:14.324Z,89.62
2016-06-15T04:17:14.328Z,88.31
2016-06-15T04:19:14.334Z,86.03
2016-06-15T04:20:15.649Z,84.68
2016-06-15T04:21:14.355Z,83.56
2016-06-15T04:22:14.624Z,82.31
2016-06-15T04:23:14.346Z,81.77
2016-06-15T04:24:14.365Z,80.99
2016-06-15T04:25:14.367Z,80.51
2016-06-15T04:26:14.371Z,79.2
2016-06-15T04:27:14.373Z,79.06
2016-06-15T04:28:15.158Z,78.29
2016-06-15T04:29:15.240Z,77.32
2016-06-15T04:30:14.477Z,77.03
2016-06-15T04:31:14.402Z,76.93
2016-06-15T04:32:14.405Z,76.06
2016-06-15T04:33:14.408Z,75.29
2016-06-15T04:34:14.583Z,75.54
2016-06-15T04:35:14.414Z,75.93
2016-06-15T04:36:14.620Z,75.41
2016-06-15T04:37:14.435Z,75.41
2016-06-15T04:38:14.438Z,74.73
2016-06-15T04:39:14.441Z,74.93
2016-06-15T04:40:14.445Z,74.73
2016-06-15T04:41:14.447Z,74.93
2016-06-15T04:42:14.450Z,74.69
2016-06-15T04:43:14.453Z,74.51
2016-06-15T04:44:14.456Z,74.6
2016-06-15T04:45:14.459Z,73.44
2016-06-15T04:46:14.479Z,73.15
2016-06-15T04:47:14.481Z,73.41
2016-06-15T04:48:14.485Z,73.31
2016-06-15T04:49:14.488Z,73.41
2016-06-15T04:50:14.491Z,73.5
2016-06-15T04:51:14.494Z,73.31
2016-06-15T04:52:14.513Z,73.21
2016-06-15T04:53:14.500Z,72.63
2016-06-15T04:54:14.503Z,72.63
2016-06-15T04:55:14.522Z,72.09
2016-06-15T04:56:14.509Z,72.09
2016-06-15T04:57:14.529Z,72.58
2016-06-15T04:58:14.531Z,72.28
2016-06-15T04:59:14.535Z,72
2016-06-15T05:00:14.537Z,71.7
2016-06-15T05:01:14.541Z,71.48
2016-06-15T05:02:14.544Z,71.61
2016-06-15T05:03:14.547Z,71.22
2016-06-15T05:04:14.550Z,70.94
2016-06-15T05:05:14.553Z,70.7
2016-06-15T05:06:14.790Z,70.9
2016-06-15T05:07:14.559Z,70.9
2016-06-15T05:08:14.563Z,71.09
2016-06-15T05:09:14.580Z,70.96
2016-06-15T05:10:14.569Z,71.06
2016-06-15T05:11:14.586Z,70.96
2016-06-15T05:12:14.590Z,71.25
2016-06-15T05:13:14.468Z,71.44
2016-06-15T05:14:14.596Z,71.54
2016-06-15T05:15:14.599Z,71.44
2016-06-15T05:16:14.602Z,71.34
2016-06-15T05:17:14.605Z,70.67
2016-06-15T05:18:14.608Z,71.15
2016-06-15T05:19:14.612Z,71.64
2016-06-15T05:20:14.864Z,71.41
2016-06-15T05:21:14.759Z,71.41
2016-06-15T05:22:14.917Z,71.31
2016-06-15T05:23:14.624Z,71.89
2016-06-15T05:24:14.626Z,71.98
2016-06-15T05:25:14.646Z,71.79
2016-06-15T05:26:14.695Z,71.89
2016-06-15T05:27:14.636Z,71.98
2016-06-15T05:28:14.639Z,71.89
2016-06-15T05:29:15.564Z,71.98
2016-06-15T05:30:14.645Z,71.89
2016-06-15T05:31:14.648Z,71.79
2016-06-15T05:32:15.417Z,71.98
2016-06-15T05:33:14.654Z,72.47
2016-06-15T05:34:14.657Z,72.43
2016-06-15T05:35:14.677Z,72.05
2016-06-15T05:36:15.101Z,72.63
2016-06-15T05:37:14.682Z,72.53
2016-06-15T05:38:15.513Z,73.01
2016-06-15T05:39:15.766Z,73.01
2016-06-15T05:40:15.628Z,73.2
2016-06-15T05:41:14.695Z,73.16
2016-06-15T05:42:15.198Z,73.07
2016-06-15T05:43:14.700Z,74.03
2016-06-15T05:44:14.688Z,73.84
2016-06-15T05:46:15.477Z,74.13
2016-06-15T05:47:16.088Z,74.32
2016-06-15T05:48:14.717Z,74.13
2016-06-15T05:49:15.328Z,74.51
2016-06-15T05:50:15.019Z,74.03
2016-06-15T05:51:14.709Z,74.8
2016-06-15T05:52:14.760Z,74.57
2016-06-15T05:53:14.747Z,74.41
2016-06-15T05:54:14.735Z,74.57
2016-06-15T05:55:14.721Z,74.67
2016-06-15T05:56:14.725Z,74.61
2016-06-15T05:57:14.728Z,74.41
2016-06-15T05:58:14.747Z,75.19
2016-06-15T05:59:14.734Z,75.15
2016-06-15T06:00:14.737Z,75.34
2016-06-15T06:01:14.740Z,75.57
2016-06-15T06:02:14.744Z,76.31
2016-06-15T06:03:14.746Z,76.78
2016-06-15T06:04:14.750Z,77.17
2016-06-15T06:05:14.752Z,77.56
2016-06-15T06:06:14.974Z,77.46
2016-06-15T06:07:14.744Z,78.13
2016-06-15T06:08:14.747Z,78.13
2016-06-15T06:09:14.764Z,78.52
2016-06-15T06:10:14.753Z,78.42
2016-06-15T06:11:14.756Z,78.61
2016-06-15T06:12:14.759Z,78.81
2016-06-15T06:13:14.763Z,79.19
2016-06-15T06:14:14.765Z,79.58
2016-06-15T06:15:14.769Z,79.38
2016-06-15T06:16:14.771Z,79.19
2016-06-15T06:17:14.775Z,80.15
2016-06-15T06:18:14.777Z,80.25
2016-06-15T06:19:14.781Z,79.82
2016-06-15T06:20:14.784Z,80.15
2016-06-15T06:21:14.865Z,80.35
2016-06-15T06:22:14.790Z,80.3
2016-06-15T06:23:14.777Z,80.4
2016-06-15T06:24:14.796Z,80.5
2016-06-15T06:25:14.783Z,81.07
2016-06-15T06:26:14.786Z,81.07
2016-06-15T06:27:14.789Z,80.88
2016-06-15T06:28:14.792Z,80.69
2016-06-15T06:29:14.796Z,81.17
2016-06-15T06:30:14.798Z,81.27
2016-06-15T06:31:14.802Z,81.56
2016-06-15T06:32:14.804Z,81.46
2016-06-15T06:33:14.808Z,81.84
2016-06-15T06:34:14.795Z,81.46
2016-06-15T06:35:14.798Z,82.14
2016-06-15T06:36:14.676Z,81.75
2016-06-15T06:37:14.803Z,82.61
2016-06-15T06:38:15.214Z,82.61
2016-06-15T06:39:15.060Z,82.81
2016-06-15T06:40:15.126Z,82.9
2016-06-15T06:41:28.988Z,82.61
2016-06-15T06:42:14.819Z,82.61
2016-06-15T06:43:14.822Z,82.61
2016-06-15T06:44:14.669Z,82.71
2016-06-15T06:45:15.033Z,82.61
2016-06-15T06:46:14.831Z,82.23
2016-06-15T06:47:15.820Z,82.81
2016-06-15T06:48:15.150Z,82.23
2016-06-15T06:49:14.826Z,82.32
2016-06-15T06:50:15.032Z,83.09
2016-06-15T06:51:15.191Z,83
2016-06-15T06:52:14.835Z,82.9
2016-06-15T06:53:15.025Z,82.9
2016-06-15T06:54:14.841Z,82.81
2016-06-15T06:55:15.251Z,83.29
2016-06-15T06:56:15.800Z,83.29
2016-06-15T06:57:15.351Z,83.29
2016-06-15T06:58:14.837Z,83.19
2016-06-15T06:59:14.841Z,83.09
2016-06-15T07:00:14.954Z,83.33
2016-06-15T07:01:14.847Z,83.23
2016-06-15T07:02:15.038Z,82.9
2016-06-15T07:03:14.853Z,83
2016-06-15T07:04:15.216Z,83
2016-06-15T07:06:15.300Z,83
2016-06-15T07:07:14.865Z,82.9
2016-06-15T07:08:15.290Z,82.23
2016-06-15T07:09:14.856Z,82.52
2016-06-15T07:10:14.890Z,82.65
2016-06-15T07:11:14.863Z,82.14
2016-06-15T07:12:14.865Z,81.98
2016-06-15T07:13:14.869Z,82.27
2016-06-15T07:14:14.871Z,81.79
2016-06-15T07:15:14.875Z,81.79
2016-06-15T07:16:14.878Z,81.21
2016-06-15T07:17:14.881Z,81.79
2016-06-15T07:18:14.884Z,81.12
2016-06-15T07:19:14.887Z,80.83
2016-06-15T07:20:14.874Z,80.83
2016-06-15T07:21:15.050Z,80.92
2016-06-15T07:22:14.739Z,80.54
2016-06-15T07:23:14.883Z,80.35
2016-06-15T07:24:14.886Z,80.35
2016-06-15T07:25:14.906Z,80.54
2016-06-15T07:26:14.892Z,80.35
2016-06-15T07:27:14.896Z,80.54
2016-06-15T07:28:14.899Z,80.83
2016-06-15T07:29:14.902Z,80.44
2016-06-15T07:30:14.905Z,80.63
2016-06-15T07:31:14.908Z,80.63
2016-06-15T07:32:14.911Z,80.54
2016-06-15T07:33:14.898Z,80.44
2016-06-15T07:34:14.745Z,80.83
2016-06-15T07:35:14.904Z,80.4
2016-06-15T07:36:14.907Z,80.63
2016-06-15T07:37:14.910Z,80.6
2016-06-15T07:38:14.913Z,80.63
2016-06-15T07:39:14.916Z,80.21
2016-06-15T07:40:14.920Z,80.21
2016-06-15T07:41:14.923Z,80.11
2016-06-15T07:42:14.910Z,80.6
2016-06-15T07:43:14.929Z,81.07
2016-06-15T07:44:14.929Z,81.17
2016-06-15T07:45:14.917Z,80.4
2016-06-15T07:46:14.935Z,80.79
2016-06-15T07:47:14.923Z,80.88
2016-06-15T07:48:14.926Z,81.46
2016-06-15T07:49:14.929Z,80.69
2016-06-15T07:50:14.932Z,81.3
2016-06-15T07:51:14.935Z,81.27
2016-06-15T07:52:14.938Z,81.17
2016-06-15T07:53:14.942Z,81.07
2016-06-15T07:54:14.944Z,81.37
2016-06-15T07:55:14.962Z,81.4
2016-06-15T07:56:14.935Z,81.4
2016-06-15T07:57:29.129Z,81.21
2016-06-15T07:59:14.943Z,81.7
2016-06-15T08:00:29.138Z,81.4
2016-06-15T08:01:14.950Z,81.21
2016-06-15T08:02:14.953Z,81.12
2016-06-15T08:03:14.956Z,81.4
2016-06-15T08:04:14.959Z,81.6
2016-06-15T08:05:14.962Z,81.12
2016-06-15T08:07:15.313Z,81.63
2016-06-15T08:08:14.971Z,81.73
2016-06-15T08:09:14.975Z,81.25
2016-06-15T08:10:14.978Z,81.79
2016-06-15T08:11:15.230Z,81.54
2016-06-15T08:12:14.968Z,81.54
2016-06-15T08:13:15.595Z,82.21
2016-06-15T08:14:14.974Z,81.73
2016-06-15T08:15:16.355Z,81.73
2016-06-15T08:16:14.980Z,81.73
2016-06-15T08:17:15.000Z,82.02
2016-06-15T08:18:15.643Z,82.31
2016-06-15T08:19:14.989Z,82.6
2016-06-15T08:20:14.992Z,82.5
2016-06-15T08:21:14.995Z,82.89
2016-06-15T08:22:15.843Z,83.28
2016-06-15T08:23:15.970Z,82.89
2016-06-15T08:24:15.130Z,83.28
2016-06-15T08:25:16.402Z,83.42
2016-06-15T08:26:15.011Z,83.14
2016-06-15T08:27:15.014Z,83.33
2016-06-15T08:28:15.471Z,83.81
2016-06-15T08:29:15.005Z,84.39
2016-06-15T08:30:15.023Z,84.1
2016-06-15T08:31:15.011Z,84.58
2016-06-15T08:32:15.014Z,84.67
2016-06-15T08:33:15.018Z,84.67
2016-06-15T08:34:15.020Z,84.58
2016-06-15T08:35:15.024Z,84.87
2016-06-15T08:36:15.027Z,84.77
2016-06-15T08:37:15.030Z,85.31
2016-06-15T08:38:15.033Z,85.31
2016-06-15T08:39:15.035Z,85.31
2016-06-15T08:40:15.039Z,85.11
2016-06-15T08:41:15.026Z,85.21
2016-06-15T08:42:14.889Z,85.4
2016-06-15T08:43:15.032Z,85.88
2016-06-15T08:44:15.051Z,85.98
2016-06-15T08:45:15.038Z,85.6
2016-06-15T08:46:15.042Z,85.6
2016-06-15T08:47:15.044Z,85.5
2016-06-15T08:48:15.048Z,86.27
2016-06-15T08:49:15.050Z,86.46
2016-06-15T08:50:15.053Z,86.65
2016-06-15T08:51:15.073Z,86.36
2016-06-15T08:52:15.059Z,86.75
2016-06-15T08:53:15.063Z,86.94
2016-06-15T08:54:15.065Z,86.75
2016-06-15T08:55:15.069Z,87.18
2016-06-15T08:56:15.057Z,86.75
2016-06-15T08:57:15.060Z,86.75
2016-06-15T08:58:15.063Z,86.94
2016-06-15T08:59:15.066Z,87.42
2016-06-15T09:00:22.009Z,87.42
2016-06-15T09:01:15.087Z,87.52
2016-06-15T09:02:15.076Z,87.9
2016-06-15T09:03:15.079Z,87.9
2016-06-15T09:04:14.925Z,88.96
2016-06-15T09:05:15.085Z,88.67
2016-06-15T09:06:15.088Z,89.35
2016-06-15T09:07:15.091Z,89.25
2016-06-15T09:08:15.078Z,89.21
2016-06-15T09:09:15.082Z,89.21
2016-06-15T09:10:15.084Z,89.88
2016-06-15T09:11:15.103Z,89.59
2016-06-15T09:12:15.091Z,90.07
2016-06-15T09:13:22.098Z,90.6
2016-06-15T09:14:15.075Z,91.08
2016-06-15T09:15:15.436Z,91.18
2016-06-15T09:16:15.596Z,91.28
2016-06-15T09:18:16.244Z,91.66
2016-06-15T09:19:15.699Z,91.75
2016-06-15T09:20:15.092Z,91.85
2016-06-15T09:21:15.096Z,91.85
2016-06-15T09:22:15.411Z,91.66
2016-06-15T09:23:15.102Z,92.14
2016-06-15T09:24:15.714Z,92.33
2016-06-15T09:25:15.108Z,92.43
2016-06-15T09:27:14.958Z,93.1
2016-06-15T09:28:15.133Z,93.01
2016-06-15T09:29:15.129Z,92.91
2016-06-15T09:30:15.102Z,92.81
2016-06-15T09:31:15.277Z,93.01
2016-06-15T09:32:16.609Z,92.81
2016-06-15T09:34:16.036Z,93.15
2016-06-15T09:35:15.118Z,92.96
2016-06-15T09:36:15.684Z,92.96
2016-06-15T09:37:15.107Z,93.25
2016-06-15T09:38:15.110Z,93.58
2016-06-15T09:39:15.113Z,93.29
2016-06-15T09:40:15.117Z,93.44
2016-06-15T09:41:16.574Z,93.05
2016-06-15T09:42:15.139Z,93.15
2016-06-15T09:43:15.595Z,93.1
2016-06-15T09:44:15.301Z,93.29
2016-06-15T09:45:15.118Z,93.44
2016-06-15T09:46:15.135Z,93.63
2016-06-15T09:47:15.123Z,93.54
2016-06-15T09:48:15.126Z,93.29
2016-06-15T09:49:14.989Z,93.82
2016-06-15T09:50:15.132Z,93.68
2016-06-15T09:51:14.995Z,93.29
2016-06-15T09:52:15.139Z,93.49
2016-06-15T09:53:15.126Z,93.58
2016-06-15T09:54:15.128Z,94.06
2016-06-15T09:55:15.132Z,93.58
2016-06-15T09:56:15.151Z,93.49
2016-06-15T09:57:15.138Z,93.68
2016-06-15T09:58:15.141Z,93.87
2016-06-15T09:59:15.130Z,93.77
2016-06-15T10:00:15.147Z,93.68
2016-06-15T10:01:15.150Z,93.01
2016-06-15T10:02:15.138Z,93.05
2016-06-15T10:03:15.156Z,93.01
2016-06-15T10:04:15.163Z,93.15
2016-06-15T10:05:15.206Z,93.15
2016-06-15T10:06:15.249Z,93.24
2016-06-15T10:07:15.277Z,93.24
2016-06-15T10:08:15.335Z,93.24
2016-06-15T10:09:15.366Z,93.15
2016-06-15T10:10:15.368Z,93
2016-06-15T10:11:15.384Z,93.1
2016-06-15T10:12:15.402Z,93.1
2016-06-15T10:13:15.420Z,93.19
2016-06-15T10:14:15.277Z,93.29
2016-06-15T10:15:15.285Z,93
2016-06-15T10:16:28.808Z,93.05
2016-06-15T10:17:15.458Z,93.15
2016-06-15T10:18:22.810Z,92.66
2016-06-15T10:19:15.473Z,92.66
2016-06-15T10:20:15.478Z,92.57
2016-06-15T10:21:15.483Z,91.89
2016-06-15T10:22:15.832Z,91.55
2016-06-15T10:23:15.493Z,91.07
2016-06-15T10:24:15.497Z,91.27
2016-06-15T10:25:15.485Z,91.36
2016-06-15T10:26:15.489Z,91.36
2016-06-15T10:27:15.491Z,91.84
2016-06-15T10:28:15.511Z,91.07
2016-06-15T10:29:15.499Z,90.97
2016-06-15T10:30:15.502Z,90.97
2016-06-15T10:31:15.505Z,91.27
2016-06-15T10:32:15.509Z,90.78
2016-06-15T10:33:15.512Z,90.78
2016-06-15T10:34:15.516Z,90.92
2016-06-15T10:35:15.519Z,90.92
2016-06-15T10:36:23.147Z,90.44
2016-06-15T10:37:34.526Z,90.34
2016-06-15T10:38:34.044Z,90.44
2016-06-15T10:39:32.125Z,89.48
2016-06-15T10:40:27.082Z,90.06
2016-06-15T10:41:21.601Z,89.86
2016-06-15T10:42:31.401Z,89.39
2016-06-15T10:44:16.454Z,89.81
2016-06-15T10:45:15.550Z,89.91
2016-06-15T10:46:22.117Z,89.33
2016-06-15T10:47:23.728Z,89.23
2016-06-15T10:48:44.669Z,89.72
2016-06-15T10:49:26.016Z,89.57
2016-06-15T10:50:24.051Z,89.28
2016-06-15T10:51:25.085Z,89.47
2016-06-15T10:52:51.494Z,88.79
2016-06-15T10:54:45.391Z,88.41
2016-06-15T10:55:54.144Z,88.22
2016-06-15T10:56:54.131Z,88.6
2016-06-15T10:57:54.150Z,88.45
2016-06-15T10:58:54.137Z,88.17
2016-06-15T10:59:55.844Z,88.45
2016-06-15T11:00:54.160Z,88.36
2016-06-15T11:01:54.163Z,88.07
2016-06-15T11:02:55.322Z,87.73
2016-06-15T11:03:54.169Z,87.78
2016-06-15T11:04:54.172Z,87.49
2016-06-15T11:05:54.175Z,87.44
2016-06-15T11:06:54.366Z,87.15
2016-06-15T11:07:54.196Z,87.63
2016-06-15T11:08:54.184Z,87.68
2016-06-15T11:09:54.032Z,87.24
2016-06-15T11:10:54.190Z,87.24
2016-06-15T11:11:54.209Z,87.24
2016-06-15T11:12:54.056Z,87.24
2016-06-15T11:13:54.215Z,87.05
2016-06-15T11:14:54.217Z,86.57
2016-06-15T11:15:54.221Z,86.03
2016-06-15T11:16:54.224Z,85.16
2016-06-15T11:17:54.227Z,85.55
2016-06-15T11:18:54.231Z,85.45
2016-06-15T11:19:54.233Z,85.55
2016-06-15T11:20:54.237Z,85.64
2016-06-15T11:21:54.256Z,85.45
2016-06-15T11:22:54.258Z,85.55
2016-06-15T11:23:54.261Z,85.16
2016-06-15T11:24:54.265Z,84.68
2016-06-15T11:25:54.283Z,84.74
2016-06-15T11:26:54.271Z,84.3
2016-06-15T11:27:54.430Z,83.77
2016-06-15T11:28:54.292Z,83.77
2016-06-15T11:29:54.296Z,83.58
2016-06-15T11:30:54.299Z,83.48
2016-06-15T11:31:54.302Z,83.77
2016-06-15T11:32:54.305Z,83.77
2016-06-15T11:33:54.151Z,83.58
2016-06-15T11:34:54.311Z,83.77
2016-06-15T11:35:54.315Z,83.67
2016-06-15T11:36:55.193Z,83.44
2016-06-15T11:37:54.320Z,83.58
2016-06-15T11:38:54.338Z,83.44
2016-06-15T11:39:54.341Z,83.34
2016-06-15T11:40:54.344Z,83.58
2016-06-15T11:41:54.348Z,83.58
2016-06-15T11:42:54.351Z,83.29
2016-06-15T11:43:54.354Z,82.51
2016-06-15T11:44:54.357Z,82.71
2016-06-15T11:45:54.360Z,82.81
2016-06-15T11:46:54.208Z,82.03
2016-06-15T11:47:54.366Z,82.23
2016-06-15T11:48:54.369Z,82.13
2016-06-15T11:49:54.389Z,82.03
2016-06-15T11:50:54.391Z,82.51
2016-06-15T11:51:54.395Z,81.55
2016-06-15T11:52:55.039Z,81.16
2016-06-15T11:53:54.401Z,81.84
2016-06-15T11:54:54.560Z,81.74
2016-06-15T11:55:54.406Z,82.03
2016-06-15T11:56:54.707Z,81.65
2016-06-15T11:57:54.429Z,81.49
2016-06-15T11:58:54.416Z,81.49
2016-06-15T11:59:54.436Z,80.72
2016-06-15T12:00:54.438Z,80.33
2016-06-15T12:01:55.285Z,80.24
2016-06-15T12:03:10.070Z,80.14
2016-06-15T12:03:54.838Z,79.75
2016-06-15T12:04:54.451Z,79.56
2016-06-15T12:05:54.453Z,79.95
2016-06-15T12:06:54.457Z,79.85
2016-06-15T12:07:54.834Z,79.66
2016-06-15T12:09:54.637Z,79.37
2016-06-15T12:10:55.437Z,79.08
2016-06-15T12:11:55.159Z,79.17
2016-06-15T12:12:54.537Z,79.27
2016-06-15T12:13:54.884Z,78.69
2016-06-15T12:14:54.872Z,78.99
2016-06-15T12:15:54.797Z,79.08
2016-06-15T12:16:54.502Z,78.5
2016-06-15T12:17:55.708Z,78.59
2016-06-15T12:18:55.665Z,78.21
2016-06-15T12:19:54.528Z,78.31
2016-06-15T12:20:55.046Z,78.31
2016-06-15T12:21:55.253Z,77.53
2016-06-15T12:22:54.380Z,77.83
2016-06-15T12:23:54.571Z,78.02
2016-06-15T12:24:54.902Z,77.25
2016-06-15T12:25:54.546Z,77.38
2016-06-15T12:26:54.564Z,76.9
2016-06-15T12:27:54.567Z,76.32
2016-06-15T12:28:54.570Z,75.93
2016-06-15T12:29:54.574Z,75.16
2016-06-15T12:30:54.577Z,74.96
2016-06-15T12:31:54.580Z,74.9
2016-06-15T12:32:54.582Z,74.52
2016-06-15T12:33:54.585Z,74.13
2016-06-15T12:34:54.589Z,73.74
2016-06-15T12:35:54.608Z,72.68
2016-06-15T12:36:54.610Z,72.72
2016-06-15T12:37:55.270Z,72.42
2016-06-15T12:38:54.617Z,72.33
2016-06-15T12:39:54.620Z,71.94
2016-06-15T12:40:54.624Z,71.26
2016-06-15T12:41:54.642Z,70.88
2016-06-15T12:42:54.645Z,71.36
2016-06-15T12:43:54.648Z,70.78
2016-06-15T12:44:54.652Z,70.88
2016-06-15T12:45:54.670Z,69.72
2016-06-15T12:46:54.658Z,69.72
2016-06-15T12:47:54.676Z,69.24
2016-06-15T12:48:54.678Z,68.95
2016-06-15T12:49:54.682Z,69.04
2016-06-15T12:50:54.685Z,69.04
2016-06-15T12:51:54.688Z,69.01
2016-06-15T12:52:54.707Z,69.1
2016-06-15T12:53:54.694Z,68.62
2016-06-15T12:54:54.714Z,68.24
2016-06-15T12:55:54.716Z,68.1
2016-06-15T12:56:54.719Z,68.49
2016-06-15T12:57:54.722Z,68.2
2016-06-15T12:58:54.726Z,68.88
2016-06-15T12:59:54.963Z,67.91
2016-06-15T13:00:54.732Z,68.4
2016-06-15T13:01:54.751Z,68.4
2016-06-15T13:02:54.754Z,68.4
2016-06-15T13:03:54.757Z,68.2
2016-06-15T13:04:54.775Z,68.2
2016-06-15T13:05:54.763Z,68.01
2016-06-15T13:06:54.609Z,68.01
2016-06-15T13:07:55.034Z,68.1
2016-06-15T13:08:54.787Z,67.85
2016-06-15T13:09:54.791Z,67.85